Time;durP1;ratioP1;P1;durP2;ratioP2;P2;SDS_P1;SDS_P2;PMS_P1;PMS_P2;Temp;Humidity;BMP_temperature;BMP_pressure;BME280_temperature;BME280_humidity;BME280_pressure;Samples;Min_cycle;Max_cycle;Signal;HPM_P1;HPM_P2
2021/01/07 00:00:18;;;;;;;17.35;12.88;;;-0.40;99.90;;;;;;5024696;28;20064;-76
2021/01/07 00:02:45;;;;;;;19.60;13.35;;;-0.40;99.90;;;;;;5042408;28;20099;-75
2021/01/07 00:05:11;;;;;;;18.83;12.82;;;-0.40;99.90;;;;;;5046427;28;20136;-75
2021/01/07 00:07:37;;;;;;;16.00;11.90;;;-0.40;99.90;;;;;;5041952;28;20068;-75
2021/01/07 00:10:05;;;;;;;18.85;12.57;;;-0.40;99.90;;;;;;5028024;28;20072;-75
2021/01/07 00:12:32;;;;;;;16.30;12.35;;;-0.40;99.90;;;;;;5047072;28;20044;-75
2021/01/07 00:14:58;;;;;;;14.40;11.30;;;-0.40;99.90;;;;;;5029082;28;20045;-75
2021/01/07 00:17:25;;;;;;;16.67;11.90;;;-0.40;99.90;;;;;;5047028;28;20126;-76
2021/01/07 00:19:52;;;;;;;15.52;11.07;;;-0.40;99.90;;;;;;5046676;28;20041;-76
2021/01/07 00:22:18;;;;;;;15.48;11.75;;;-0.40;99.90;;;;;;5029036;28;20102;-76
2021/01/07 00:24:45;;;;;;;16.45;11.80;;;-0.40;99.90;;;;;;5046243;28;20064;-75
2021/01/07 00:27:11;;;;;;;16.67;11.70;;;-0.40;99.90;;;;;;5047227;28;20060;-75
2021/01/07 00:29:38;;;;;;;16.02;11.88;;;-0.40;99.90;;;;;;5046366;28;20151;-75
2021/01/07 00:32:05;;;;;;;15.85;10.85;;;-0.40;99.90;;;;;;5029269;28;20128;-75
2021/01/07 00:34:31;;;;;;;17.50;11.65;;;-0.40;99.90;;;;;;5045793;28;20037;-76
2021/01/07 00:36:58;;;;;;;15.43;11.50;;;-0.40;99.90;;;;;;5047089;28;20053;-75
2021/01/07 00:39:25;;;;;;;17.17;10.85;;;-0.40;99.90;;;;;;5027247;28;20068;-76
2021/01/07 00:41:56;;;;;;;19.58;11.20;;;-0.50;99.90;;;;;;5047158;28;20049;-77
2021/01/07 00:44:23;;;;;;;16.33;11.68;;;-0.50;99.90;;;;;;5027860;28;20715;-77
2021/01/07 00:46:53;;;;;;;15.70;10.65;;;-0.40;99.90;;;;;;5047422;28;20085;-75
2021/01/07 00:49:20;;;;;;;16.50;11.00;;;-0.40;99.90;;;;;;5045672;28;20107;-76
2021/01/07 00:51:47;;;;;;;17.73;11.02;;;-0.40;99.90;;;;;;5029232;28;20053;-75
2021/01/07 00:54:14;;;;;;;14.73;10.35;;;-0.50;99.90;;;;;;5044901;28;20132;-76
2021/01/07 00:56:41;;;;;;;12.48;9.15;;;-0.40;99.90;;;;;;5041617;28;20124;-76
2021/01/07 00:59:08;;;;;;;14.00;9.77;;;-0.40;99.90;;;;;;5027987;28;20610;-75
2021/01/07 01:01:45;;;;;;;14.50;9.57;;;-0.50;99.90;;;;;;5045822;28;20061;-75
2021/01/07 01:04:13;;;;;;;11.35;8.82;;;-0.50;99.90;;;;;;5045136;28;20509;-75
2021/01/07 01:06:41;;;;;;;13.07;9.30;;;-0.50;99.90;;;;;;5045411;28;20480;-76
2021/01/07 01:09:09;;;;;;;14.68;9.55;;;-0.50;99.90;;;;;;5027075;28;20076;-75
2021/01/07 01:11:42;;;;;;;14.60;9.38;;;-0.50;99.90;;;;;;5046455;28;20179;-76
2021/01/07 01:14:09;;;;;;;14.85;10.07;;;-0.50;99.90;;;;;;5027657;28;20499;-76
2021/01/07 01:16:36;;;;;;;13.27;9.30;;;-0.50;99.90;;;;;;5046203;28;20129;-75
2021/01/07 01:19:04;;;;;;;11.38;8.48;;;-0.50;99.90;;;;;;5044772;28;20037;-74
2021/01/07 01:21:31;;;;;;;13.98;9.57;;;-0.60;99.90;;;;;;5028226;28;20076;-75
2021/01/07 01:23:58;;;;;;;13.77;9.95;;;-0.60;99.90;;;;;;5045145;28;20131;-75
2021/01/07 01:26:25;;;;;;;15.82;9.60;;;-0.60;99.90;;;;;;5045662;28;20049;-76
2021/01/07 01:28:51;;;;;;;17.35;10.40;;;-0.60;99.90;;;;;;5045535;28;20122;-75
2021/01/07 01:31:18;;;;;;;15.82;10.15;;;-0.60;99.90;;;;;;5046259;28;20045;-76
2021/01/07 01:33:44;;;;;;;15.13;10.52;;;-0.70;99.90;;;;;;5045229;28;20045;-75
2021/01/07 01:36:10;;;;;;;18.00;10.30;;;-0.60;99.90;;;;;;5027613;28;20656;-75
2021/01/07 01:38:37;;;;;;;16.88;9.93;;;-0.70;99.90;;;;;;5045119;28;20067;-76
2021/01/07 01:41:04;;;;;;;14.38;9.55;;;-0.70;99.90;;;;;;5045310;28;20128;-75
2021/01/07 01:43:33;;;;;;;13.57;9.60;;;-0.70;99.90;;;;;;5045086;28;20060;-75
2021/01/07 01:45:59;;;;;;;14.05;10.32;;;-0.70;99.90;;;;;;5045609;28;20208;-75
2021/01/07 01:48:27;;;;;;;16.05;10.20;;;-0.60;99.90;;;;;;5045208;28;20133;-77
2021/01/07 01:50:53;;;;;;;16.27;10.85;;;-0.70;99.90;;;;;;5044966;28;20156;-75
2021/01/07 01:53:23;;;;;;;14.52;10.25;;;-0.60;99.90;;;;;;5045487;28;20069;-76
2021/01/07 01:55:50;;;;;;;16.08;10.50;;;-0.60;99.90;;;;;;5042834;28;20087;-76
2021/01/07 01:58:17;;;;;;;17.48;10.32;;;-0.70;99.90;;;;;;5026936;28;20520;-76
2021/01/07 02:00:43;;;;;;;14.80;10.40;;;-0.70;99.90;;;;;;5044706;28;20140;-76
2021/01/07 02:03:11;;;;;;;16.40;10.98;;;-0.70;99.90;;;;;;5045014;28;20076;-75
2021/01/07 02:05:38;;;;;;;18.83;12.02;;;-0.70;99.90;;;;;;5044841;28;20122;-76
2021/01/07 02:08:08;;;;;;;15.40;10.93;;;-0.70;99.90;;;;;;5045147;28;20056;-75
2021/01/07 02:10:35;;;;;;;16.25;11.20;;;-0.60;99.90;;;;;;5042178;28;20037;-75
2021/01/07 02:13:03;;;;;;;19.92;12.80;;;-0.70;99.90;;;;;;5045043;28;20071;-76
2021/01/07 02:15:30;;;;;;;19.60;12.80;;;-0.70;99.90;;;;;;5044712;28;20071;-76
2021/01/07 02:17:57;;;;;;;17.10;11.63;;;-0.70;99.90;;;;;;5045252;28;20052;-76
2021/01/07 02:20:25;;;;;;;19.92;13.45;;;-0.70;99.90;;;;;;5044029;28;20124;-77
2021/01/07 02:22:56;;;;;;;21.15;13.43;;;-0.70;99.90;;;;;;5044639;28;20083;-76
2021/01/07 02:25:27;;;;;;;23.15;12.85;;;-0.70;99.90;;;;;;5044001;28;20045;-76
2021/01/07 02:27:54;;;;;;;23.45;13.77;;;-0.70;99.90;;;;;;5044919;28;20065;-75
2021/01/07 02:30:21;;;;;;;23.65;14.48;;;-0.70;99.90;;;;;;5044442;28;20136;-76
2021/01/07 02:32:48;;;;;;;22.70;14.80;;;-0.70;99.90;;;;;;5045356;28;20102;-76
2021/01/07 02:35:15;;;;;;;23.77;14.75;;;-0.70;99.90;;;;;;5026076;28;20073;-75
2021/01/07 02:37:42;;;;;;;25.90;16.58;;;-0.70;99.90;;;;;;5044294;28;20089;-75
2021/01/07 02:40:09;;;;;;;24.75;16.15;;;-0.70;99.90;;;;;;5043458;28;20088;-76
2021/01/07 02:42:37;;;;;;;26.02;17.20;;;-0.70;99.90;;;;;;5044154;28;20139;-75
2021/01/07 02:45:05;;;;;;;24.30;15.75;;;-0.70;99.90;;;;;;5044494;28;20078;-75
2021/01/07 02:47:31;;;;;;;25.25;16.02;;;-0.70;99.90;;;;;;5044546;28;20076;-76
2021/01/07 02:49:58;;;;;;;29.95;17.50;;;-0.70;99.90;;;;;;5043813;28;20052;-75
2021/01/07 02:52:24;;;;;;;28.60;16.67;;;-0.70;99.90;;;;;;5026273;28;20479;-76
2021/01/07 02:54:50;;;;;;;28.33;17.27;;;-0.70;99.90;;;;;;5025919;28;20076;-75
2021/01/07 02:57:17;;;;;;;27.50;17.20;;;-0.70;99.90;;;;;;5037649;28;20128;-76
2021/01/07 02:59:43;;;;;;;29.95;18.08;;;-0.70;99.90;;;;;;5037309;28;20135;-75
2021/01/07 03:02:10;;;;;;;33.25;18.33;;;-0.70;99.90;;;;;;5043923;28;20543;-75
2021/01/07 03:04:37;;;;;;;28.27;17.60;;;-0.70;99.90;;;;;;5043523;28;20121;-75
2021/01/07 03:07:03;;;;;;;30.70;17.70;;;-0.70;99.90;;;;;;5044462;28;20045;-75
2021/01/07 03:09:30;;;;;;;29.15;18.20;;;-0.70;99.90;;;;;;5043075;28;20084;-76
2021/01/07 03:11:56;;;;;;;31.42;18.50;;;-0.70;99.90;;;;;;5044776;28;20079;-74
2021/01/07 03:14:22;;;;;;;34.50;18.52;;;-0.70;99.90;;;;;;5025797;28;20049;-76
2021/01/07 03:16:49;;;;;;;37.38;20.40;;;-0.70;99.90;;;;;;5044470;28;20092;-75
2021/01/07 03:19:15;;;;;;;37.38;20.70;;;-0.70;99.90;;;;;;5025253;28;20048;-74
2021/01/07 03:21:42;;;;;;;38.65;21.63;;;-0.70;99.90;;;;;;5044516;28;20456;-75
2021/01/07 03:24:09;;;;;;;33.33;20.05;;;-0.70;99.90;;;;;;5041318;28;20084;-75
2021/01/07 03:26:36;;;;;;;35.17;20.83;;;-0.70;99.90;;;;;;5026657;28;20333;-75
2021/01/07 03:29:04;;;;;;;32.90;18.70;;;-0.70;99.90;;;;;;5025330;28;20108;-75
2021/01/07 03:31:31;;;;;;;35.90;20.00;;;-0.70;99.90;;;;;;5048009;28;20114;-75
2021/01/07 03:33:57;;;;;;;37.10;19.20;;;-0.70;99.90;;;;;;5029084;28;20575;-75
2021/01/07 03:36:24;;;;;;;33.85;20.60;;;-0.70;99.90;;;;;;5048593;28;20045;-76
2021/01/07 03:38:50;;;;;;;33.75;18.90;;;-0.70;99.90;;;;;;5029835;28;20053;-75
2021/01/07 03:41:17;;;;;;;31.80;19.45;;;-0.70;99.90;;;;;;5048081;28;20045;-75
2021/01/07 03:43:43;;;;;;;34.30;18.35;;;-0.70;99.90;;;;;;5047631;28;20091;-75
2021/01/07 03:46:10;;;;;;;35.03;20.38;;;-0.70;99.90;;;;;;5047932;28;20120;-75
2021/01/07 03:48:36;;;;;;;35.25;20.73;;;-0.70;99.90;;;;;;5047064;28;20083;-76
2021/01/07 03:51:02;;;;;;;32.15;18.73;;;-0.70;99.90;;;;;;5047801;28;20080;-76
2021/01/07 03:53:29;;;;;;;36.97;19.98;;;-0.70;99.90;;;;;;5029343;28;20546;-76
2021/01/07 03:55:55;;;;;;;34.47;19.30;;;-0.70;99.90;;;;;;5029541;28;20068;-75
2021/01/07 03:58:22;;;;;;;37.08;20.73;;;-0.70;99.90;;;;;;5029307;28;20110;-76
2021/01/07 04:00:48;;;;;;;38.60;21.65;;;-0.70;99.90;;;;;;5048043;28;20041;-75
2021/01/07 04:03:15;;;;;;;39.15;20.98;;;-0.70;99.90;;;;;;5047322;28;20044;-76
2021/01/07 04:05:42;;;;;;;37.25;20.80;;;-0.70;99.90;;;;;;5029086;28;20146;-75
2021/01/07 04:08:08;;;;;;;35.05;20.05;;;-0.70;99.90;;;;;;5044994;28;20041;-76
2021/01/07 04:10:35;;;;;;;36.67;20.45;;;-0.70;99.90;;;;;;5046615;28;20077;-76
2021/01/07 04:13:02;;;;;;;38.15;21.42;;;-0.70;99.90;;;;;;5036506;28;20092;-75
2021/01/07 04:15:28;;;;;;;44.15;22.55;;;-0.70;99.90;;;;;;5046992;28;20092;-77
2021/01/07 04:17:54;;;;;;;43.15;21.20;;;-0.70;99.90;;;;;;5047252;28;20099;-76
2021/01/07 04:20:21;;;;;;;45.42;23.42;;;-0.70;99.90;;;;;;5046828;28;20152;-75
2021/01/07 04:22:47;;;;;;;39.22;22.02;;;-0.70;99.90;;;;;;5047131;28;20143;-75
2021/01/07 04:25:14;;;;;;;40.75;22.55;;;-0.70;99.90;;;;;;5024017;28;20075;-75
2021/01/07 04:27:40;;;;;;;40.72;24.02;;;-0.70;99.90;;;;;;5029124;28;20549;-75
2021/01/07 04:30:07;;;;;;;47.00;23.80;;;-0.70;99.90;;;;;;5046919;28;20175;-76
2021/01/07 04:32:34;;;;;;;42.03;23.48;;;-0.80;99.90;;;;;;5029598;28;20088;-75
2021/01/07 04:35:02;;;;;;;42.00;22.63;;;-0.70;99.90;;;;;;5028501;28;20552;-76
2021/01/07 04:37:28;;;;;;;45.85;24.20;;;-0.70;99.90;;;;;;5047360;28;20191;-76
2021/01/07 04:39:56;;;;;;;44.60;24.85;;;-0.70;99.90;;;;;;5045691;28;20102;-75
2021/01/07 04:42:23;;;;;;;47.40;23.40;;;-0.70;99.90;;;;;;5046828;28;20726;-76
2021/01/07 04:44:50;;;;;;;43.78;23.42;;;-0.70;99.90;;;;;;5028902;28;20502;-75
2021/01/07 04:47:16;;;;;;;43.72;23.27;;;-0.70;99.90;;;;;;5047396;28;20095;-77
2021/01/07 04:49:43;;;;;;;42.22;24.10;;;-0.70;99.90;;;;;;5046035;28;20550;-76
2021/01/07 04:52:11;;;;;;;43.78;23.58;;;-0.70;99.90;;;;;;5046537;28;20048;-76
2021/01/07 04:54:37;;;;;;;44.75;22.85;;;-0.70;99.90;;;;;;5045980;28;20065;-76
2021/01/07 04:57:04;;;;;;;42.38;22.90;;;-0.70;99.90;;;;;;5035351;28;20102;-76
2021/01/07 04:59:30;;;;;;;49.05;25.67;;;-0.70;99.90;;;;;;5046065;28;20076;-76
2021/01/07 05:01:57;;;;;;;47.25;24.60;;;-0.70;99.90;;;;;;5046623;28;20551;-75
2021/01/07 05:04:23;;;;;;;45.75;25.30;;;-0.70;99.90;;;;;;5045824;28;20134;-77
2021/01/07 05:06:49;;;;;;;49.50;24.52;;;-0.70;99.90;;;;;;5046959;28;20132;-76
2021/01/07 05:09:16;;;;;;;51.33;25.42;;;-0.70;99.90;;;;;;5045085;28;20045;-76
2021/01/07 05:11:42;;;;;;;48.08;25.27;;;-0.60;99.90;;;;;;5028864;28;20151;-76
2021/01/07 05:14:10;;;;;;;49.53;25.50;;;-0.70;99.90;;;;;;5045821;28;20080;-77
2021/01/07 05:16:37;;;;;;;52.90;26.45;;;-0.70;99.90;;;;;;5028602;28;20051;-75
2021/01/07 05:19:05;;;;;;;52.35;27.17;;;-0.70;99.90;;;;;;5045693;28;20092;-76
2021/01/07 05:21:34;;;;;;;53.20;26.35;;;-0.70;99.90;;;;;;5046564;28;20105;-76
2021/01/07 05:24:02;;;;;;;50.55;25.65;;;-0.70;99.90;;;;;;5027777;28;20415;-76
2021/01/07 05:26:28;;;;;;;52.05;25.88;;;-0.70;99.90;;;;;;5028422;28;20049;-76
2021/01/07 05:28:57;;;;;;;51.03;26.30;;;-0.70;99.90;;;;;;5045624;28;20520;-75
2021/01/07 05:31:26;;;;;;;51.90;24.95;;;-0.70;99.90;;;;;;5046484;28;20053;-77
2021/01/07 05:33:56;;;;;;;47.20;25.35;;;-0.70;99.90;;;;;;5045101;28;20095;-76
2021/01/07 05:36:30;;;;;;;48.03;24.08;;;-0.70;99.90;;;;;;5046415;28;20418;-78
2021/01/07 05:39:03;;;;;;;52.20;24.70;;;-0.70;99.90;;;;;;5045072;28;20048;-76
2021/01/07 05:41:30;;;;;;;50.88;26.13;;;-0.70;99.90;;;;;;5046682;28;20076;-75
2021/01/07 05:44:08;;;;;;;49.83;25.88;;;-0.70;99.90;;;;;;5027951;28;20132;-75
2021/01/07 05:46:35;;;;;;;47.42;25.50;;;-0.70;99.90;;;;;;5028209;28;20102;-75
2021/01/07 05:49:02;;;;;;;47.30;24.80;;;-0.70;99.90;;;;;;5026838;28;20117;-76
2021/01/07 05:51:30;;;;;;;50.92;25.50;;;-0.70;99.90;;;;;;5045821;28;20045;-76
2021/01/07 05:53:59;;;;;;;45.92;24.08;;;-0.60;99.90;;;;;;5044506;28;20510;-76
2021/01/07 05:56:26;;;;;;;50.15;25.10;;;-0.70;99.90;;;;;;5027715;28;20080;-76
2021/01/07 05:58:54;;;;;;;47.83;25.40;;;-0.70;99.90;;;;;;5041515;28;20054;-76
2021/01/07 06:01:23;;;;;;;49.22;24.95;;;-0.60;99.90;;;;;;5036133;28;20128;-76
2021/01/07 06:03:52;;;;;;;45.85;24.98;;;-0.60;99.90;;;;;;5044512;28;20049;-76
2021/01/07 06:06:22;;;;;;;43.60;24.08;;;-0.60;99.90;;;;;;5027864;28;20130;-76
2021/01/07 06:08:49;;;;;;;47.13;25.17;;;-0.60;99.90;;;;;;5044551;28;20044;-75
2021/01/07 06:11:17;;;;;;;49.90;24.98;;;-0.60;99.90;;;;;;5045449;28;20083;-76
2021/01/07 06:13:46;;;;;;;46.78;25.48;;;-0.60;99.90;;;;;;5026668;28;20129;-77
2021/01/07 06:16:15;;;;;;;46.15;24.88;;;-0.60;99.90;;;;;;5044871;28;20053;-77
2021/01/07 06:18:41;;;;;;;49.30;24.25;;;-0.60;99.90;;;;;;5043967;28;20107;-77
2021/01/07 06:21:09;;;;;;;53.40;26.25;;;-0.60;99.90;;;;;;5044871;28;20136;-77
2021/01/07 06:23:46;;;;;;;50.40;25.27;;;-0.60;99.90;;;;;;5026195;28;20148;-77
2021/01/07 06:26:28;;;;;;;51.25;25.63;;;-0.60;99.90;;;;;;5026603;28;20060;-77
2021/01/07 06:28:58;;;;;;;53.17;26.95;;;-0.60;99.90;;;;;;5026251;28;20076;-78
2021/01/07 06:31:37;;;;;;;55.78;27.05;;;-0.60;99.90;;;;;;5044883;28;20053;-78
2021/01/07 06:34:04;;;;;;;53.88;26.60;;;-0.60;99.90;;;;;;5040770;28;20560;-77
2021/01/07 06:36:39;;;;;;;54.83;26.70;;;-0.60;99.90;;;;;;5036448;28;20636;-78
2021/01/07 06:39:06;;;;;;;55.35;26.52;;;-0.60;99.90;;;;;;5016356;28;20119;-75
2021/01/07 06:41:33;;;;;;;51.08;27.48;;;-0.60;99.90;;;;;;5030811;28;20094;-75
2021/01/07 06:44:01;;;;;;;48.00;25.17;;;-0.60;99.90;;;;;;5044451;28;20389;-76
2021/01/07 06:46:47;;;;;;;56.10;27.20;;;-0.60;99.90;;;;;;5027082;28;20085;-75
2021/01/07 06:49:27;;;;;;;54.08;27.38;;;-0.60;99.90;;;;;;5044033;28;20068;-74
2021/01/07 06:53:00;;;;;;;49.17;25.58;;;-0.60;99.90;;;;;;5044881;28;20738;-75
2021/01/07 06:55:30;;;;;;;55.13;26.92;;;-0.60;99.90;;;;;;5041195;28;20057;-75
2021/01/07 06:57:58;;;;;;;53.08;26.98;;;-0.60;99.90;;;;;;5043156;28;20843;-74
2021/01/07 07:00:26;;;;;;;52.08;27.20;;;-0.60;99.90;;;;;;5029541;28;20037;-75
2021/01/07 07:03:00;;;;;;;56.25;27.58;;;-0.60;99.90;;;;;;5044632;28;20119;-74
2021/01/07 07:05:32;;;;;;;56.97;28.98;;;-0.70;99.90;;;;;;5045462;28;20514;-75
2021/01/07 07:08:36;;;;;;;56.35;28.15;;;-0.60;99.90;;;;;;5028910;28;20106;-75
2021/01/07 07:11:09;;;;;;;49.83;26.35;;;-0.60;99.90;;;;;;5020986;28;20072;-74
2021/01/07 07:13:41;;;;;;;63.75;28.33;;;-0.60;99.90;;;;;;5048171;28;20136;-74
2021/01/07 07:16:09;;;;;;;51.28;26.27;;;-0.60;99.90;;;;;;5047536;28;20052;-74
2021/01/07 07:18:39;;;;;;;52.25;26.98;;;-0.60;99.90;;;;;;5047899;28;20068;-75
2021/01/07 07:21:19;;;;;;;48.17;25.10;;;-0.60;99.90;;;;;;5047721;28;20481;-74
2021/01/07 07:23:47;;;;;;;54.35;27.67;;;-0.60;99.90;;;;;;5047406;28;20491;-74
2021/01/07 07:26:31;;;;;;;56.33;27.25;;;-0.60;99.90;;;;;;5044142;28;20049;-74
2021/01/07 07:29:00;;;;;;;54.15;28.40;;;-0.60;99.90;;;;;;5047895;28;20069;-74
2021/01/07 07:31:53;;;;;;;58.85;28.35;;;-0.60;99.90;;;;;;5044043;28;20140;-74
2021/01/07 07:34:28;;;;;;;;;;;-0.60;99.90;;;;;;5043388;28;20080;-74
2021/01/07 07:36:54;;;;;;;50.78;26.05;;;-0.60;99.90;;;;;;5048289;28;20422;-73
2021/01/07 07:39:26;;;;;;;51.30;26.48;;;-0.60;99.90;;;;;;5047420;28;20114;-74
2021/01/07 07:42:08;;;;;;;51.92;26.63;;;-0.60;99.90;;;;;;5030085;28;20478;-74
2021/01/07 07:44:34;;;;;;;40.03;21.27;;;-0.60;99.90;;;;;;5038056;28;20583;-73
2021/01/07 07:47:02;;;;;;;53.38;26.25;;;-0.50;99.90;;;;;;5043845;28;20109;-73
2021/01/07 07:49:29;;;;;;;51.60;26.63;;;-0.50;99.90;;;;;;5047040;28;20116;-74
2021/01/07 07:51:56;;;;;;;50.22;27.25;;;-0.50;99.90;;;;;;5048386;28;20044;-73
2021/01/07 07:54:24;;;;;;;54.50;26.90;;;-0.40;99.90;;;;;;5046303;28;20080;-74
2021/01/07 07:57:00;;;;;;;48.17;24.83;;;-0.40;99.90;;;;;;5031118;28;20049;-75
2021/01/07 07:59:32;;;;;;;50.83;26.63;;;-0.40;99.90;;;;;;5030641;28;20049;-73
2021/01/07 08:01:59;;;;;;;55.08;28.67;;;-0.30;99.90;;;;;;5048284;28;20041;-74
2021/01/07 08:04:26;;;;;;;52.92;27.65;;;-0.30;99.90;;;;;;5046755;28;20040;-74
2021/01/07 08:06:55;;;;;;;42.00;23.95;;;-0.30;99.90;;;;;;5034222;28;20045;-74
2021/01/07 08:09:22;;;;;;;43.80;24.35;;;-0.30;99.90;;;;;;5029068;28;20132;-75
2021/01/07 08:11:53;;;;;;;43.03;24.65;;;-0.20;99.90;;;;;;5030547;28;20048;-75
2021/01/07 08:14:24;;;;;;;44.97;24.38;;;-0.20;99.90;;;;;;5047245;28;20403;-74
2021/01/07 08:16:58;;;;;;;44.40;24.38;;;-0.10;99.90;;;;;;5046415;28;20064;-75
2021/01/07 08:19:30;;;;;;;44.25;24.30;;;-0.10;99.90;;;;;;5043586;28;20049;-76
2021/01/07 08:21:58;;;;;;;41.58;22.40;;;-0.10;99.90;;;;;;5018462;28;20500;-75
2021/01/07 08:24:25;;;;;;;37.85;22.63;;;-0.10;99.90;;;;;;5034964;28;20072;-75
2021/01/07 08:27:01;;;;;;;35.95;20.83;;;-0.10;99.90;;;;;;5039137;28;20049;-75
2021/01/07 08:29:29;;;;;;;39.25;23.08;;;-0.10;99.90;;;;;;5037707;28;20129;-75
2021/01/07 08:32:01;;;;;;;42.85;22.52;;;0.00;99.90;;;;;;5034762;28;20127;-73
2021/01/07 08:34:30;;;;;;;41.90;22.98;;;-0.10;99.90;;;;;;5045448;28;20131;-73
2021/01/07 08:37:17;;;;;;;45.47;24.73;;;0.00;99.90;;;;;;5038789;28;20080;-75
2021/01/07 08:39:43;;;;;;;42.50;23.48;;;0.00;99.90;;;;;;5037924;28;20144;-74
2021/01/07 08:42:10;;;;;;;48.33;24.80;;;0.00;99.90;;;;;;5045070;28;20140;-74
2021/01/07 08:44:37;;;;;;;47.42;25.13;;;0.00;99.90;;;;;;5045425;28;20110;-75
2021/01/07 08:47:23;;;;;;;44.17;24.88;;;0.00;99.90;;;;;;5046353;28;20072;-76
2021/01/07 08:50:10;;;;;;;41.30;24.20;;;0.10;99.90;;;;;;5034089;28;20814;-74
2021/01/07 08:52:52;;;;;;;45.15;24.25;;;0.20;99.90;;;;;;5034509;28;20164;-74
2021/01/07 08:55:20;;;;;;;41.03;23.95;;;0.20;99.90;;;;;;5037202;28;20045;-74
2021/01/07 08:57:46;;;;;;;37.50;21.48;;;0.30;99.90;;;;;;5037760;28;20094;-75
2021/01/07 09:00:23;;;;;;;39.38;21.95;;;0.40;99.90;;;;;;5031871;28;20057;-73
2021/01/07 09:03:01;;;;;;;42.03;23.30;;;0.30;99.90;;;;;;5031972;28;20057;-73
2021/01/07 09:05:32;;;;;;;37.90;21.55;;;0.30;99.90;;;;;;5041678;28;20049;-73
2021/01/07 09:08:09;;;;;;;43.45;22.20;;;0.30;99.90;;;;;;5045678;28;20045;-74
2021/01/07 09:10:37;;;;;;;39.35;22.73;;;0.40;99.90;;;;;;5022133;28;20124;-73
2021/01/07 09:13:16;;;;;;;38.70;22.42;;;0.40;99.90;;;;;;5019421;28;20041;-73
2021/01/07 09:15:42;;;;;;;41.67;23.95;;;0.30;99.90;;;;;;5018663;28;20052;-74
2021/01/07 09:18:09;;;;;;;42.42;23.10;;;0.40;99.90;;;;;;5031474;28;20045;-74
2021/01/07 09:20:35;;;;;;;42.90;24.58;;;0.30;99.90;;;;;;5037891;28;20037;-74
2021/01/07 09:23:07;;;;;;;42.60;24.23;;;0.40;99.90;;;;;;5042704;28;20153;-73
2021/01/07 09:25:34;;;;;;;37.53;21.90;;;0.40;99.90;;;;;;5042423;28;20041;-74
2021/01/07 09:28:01;;;;;;;43.38;24.65;;;0.50;99.90;;;;;;5037760;28;20373;-73
2021/01/07 09:30:28;;;;;;;39.65;23.48;;;0.60;99.90;;;;;;5022994;28;20044;-74
2021/01/07 09:32:55;;;;;;;44.92;23.83;;;0.60;99.90;;;;;;5018426;28;20514;-73
2021/01/07 09:35:24;;;;;;;41.00;23.38;;;0.60;99.90;;;;;;5036790;28;20063;-73
2021/01/07 09:37:59;;;;;;;37.90;22.40;;;0.70;99.90;;;;;;5018000;28;20378;-74
2021/01/07 09:40:26;;;;;;;40.63;22.27;;;0.80;99.90;;;;;;5037407;28;20041;-74
2021/01/07 09:42:53;;;;;;;36.25;21.17;;;0.80;99.90;;;;;;5042237;28;20049;-75
2021/01/07 09:45:20;;;;;;;35.42;22.48;;;0.90;99.90;;;;;;5037523;28;20103;-74
2021/01/07 09:47:46;;;;;;;36.58;21.52;;;0.90;99.90;;;;;;5044526;28;20394;-74
2021/01/07 09:50:13;;;;;;;35.78;22.38;;;0.90;99.90;;;;;;5038624;28;20064;-73
2021/01/07 09:52:40;;;;;;;32.83;20.80;;;1.00;99.90;;;;;;5023293;28;20114;-73
2021/01/07 09:55:08;;;;;;;34.35;21.15;;;1.00;99.90;;;;;;5016761;28;20041;-75
2021/01/07 09:57:36;;;;;;;36.20;21.63;;;1.10;99.90;;;;;;5033372;28;20038;-74
2021/01/07 10:00:05;;;;;;;34.80;21.42;;;1.10;99.90;;;;;;5034326;28;20068;-74
2021/01/07 10:02:32;;;;;;;33.95;22.25;;;1.20;99.90;;;;;;5039914;28;20053;-73
2021/01/07 10:04:59;;;;;;;34.28;20.38;;;1.20;99.90;;;;;;5036948;28;20049;-74
2021/01/07 10:07:26;;;;;;;32.53;20.15;;;1.40;99.90;;;;;;5043786;28;20049;-73
2021/01/07 10:09:52;;;;;;;32.65;20.23;;;1.50;99.90;;;;;;5043361;28;20052;-74
2021/01/07 10:12:18;;;;;;;31.50;21.13;;;1.60;99.90;;;;;;5017287;28;20045;-75
2021/01/07 10:14:45;;;;;;;31.55;20.20;;;1.70;99.90;;;;;;5035251;28;20179;-74
2021/01/07 10:17:12;;;;;;;32.92;19.75;;;1.80;99.90;;;;;;5013426;28;20065;-74
2021/01/07 10:19:39;;;;;;;32.35;20.25;;;1.80;99.90;;;;;;5023732;28;20072;-74
2021/01/07 10:22:14;;;;;;;27.58;17.65;;;2.00;99.90;;;;;;5016132;28;20552;-74
2021/01/07 10:24:42;;;;;;;28.27;18.00;;;2.10;99.90;;;;;;5021121;28;20048;-74
2021/01/07 10:27:11;;;;;;;26.90;17.10;;;2.00;99.90;;;;;;5020815;28;20037;-75
2021/01/07 10:29:38;;;;;;;27.90;16.13;;;2.10;99.90;;;;;;5014943;28;20100;-74
2021/01/07 10:32:10;;;;;;;25.95;16.73;;;2.10;99.90;;;;;;5011634;28;20076;-74
2021/01/07 10:34:45;;;;;;;26.02;15.95;;;2.10;99.90;;;;;;5021389;28;20045;-74
2021/01/07 10:37:12;;;;;;;24.70;15.50;;;2.20;99.90;;;;;;5019728;28;20080;-74
2021/01/07 10:39:41;;;;;;;22.00;14.77;;;2.30;99.90;;;;;;5020596;28;20724;-74
2021/01/07 10:42:12;;;;;;;22.58;14.63;;;2.30;99.90;;;;;;5012043;28;20462;-74
2021/01/07 10:44:40;;;;;;;21.75;14.32;;;2.10;99.90;;;;;;5021468;28;20061;-74
2021/01/07 10:47:09;;;;;;;24.00;14.80;;;2.20;99.90;;;;;;5022310;28;20057;-75
2021/01/07 10:49:37;;;;;;;23.55;15.63;;;2.30;99.90;;;;;;5013919;28;20128;-74
2021/01/07 10:52:17;;;;;;;27.17;17.15;;;2.60;99.90;;;;;;5021541;28;20471;-75
2021/01/07 10:54:49;;;;;;;22.73;15.95;;;2.90;99.90;;;;;;5023420;28;20061;-74
2021/01/07 10:57:30;;;;;;;;;;;3.30;99.90;;;;;;5018366;28;20106;-75
2021/01/07 11:00:09;;;;;;;25.83;15.90;;;3.30;99.90;;;;;;5016802;28;20284;-75
2021/01/07 11:03:03;;;;;;;22.20;14.88;;;3.40;99.90;;;;;;5012051;28;20049;-74
2021/01/07 11:05:43;;;;;;;22.20;14.18;;;3.50;99.90;;;;;;5017526;28;20144;-75
2021/01/07 11:08:20;;;;;;;18.80;13.27;;;3.70;99.90;;;;;;5019321;28;20045;-73
2021/01/07 11:10:52;;;;;;;18.25;12.77;;;4.10;99.90;;;;;;5013940;28;20153;-74
2021/01/07 11:13:23;;;;;;;21.23;13.35;;;4.40;99.90;;;;;;5019905;28;20441;-74
2021/01/07 11:15:57;;;;;;;16.67;12.27;;;4.80;99.90;;;;;;5023485;28;20530;-73
2021/01/07 11:18:32;;;;;;;17.15;12.43;;;5.00;99.90;;;;;;5035658;28;20065;-74
2021/01/07 11:21:01;;;;;;;16.30;11.65;;;5.20;99.90;;;;;;5018886;28;20045;-73
2021/01/07 11:23:30;;;;;;;12.30;9.50;;;5.30;99.90;;;;;;5035844;28;20087;-73
2021/01/07 11:26:02;;;;;;;14.07;9.13;;;5.20;99.90;;;;;;5022465;28;20075;-73
2021/01/07 11:28:33;;;;;;;12.93;9.02;;;4.90;99.90;;;;;;5036583;28;20076;-74
2021/01/07 11:31:03;;;;;;;13.15;10.20;;;4.80;99.90;;;;;;5035912;28;20140;-73
2021/01/07 11:33:35;;;;;;;14.20;9.68;;;4.50;99.90;;;;;;5019426;28;20472;-73
2021/01/07 11:36:12;;;;;;;13.25;9.82;;;4.50;99.90;;;;;;5035350;28;20057;-73
2021/01/07 11:38:50;;;;;;;14.80;10.45;;;4.20;99.90;;;;;;5020241;28;20052;-73
2021/01/07 11:41:47;;;;;;;12.90;9.88;;;4.00;99.90;;;;;;5031590;28;20049;-73
2021/01/07 11:44:28;;;;;;;16.88;10.50;;;4.00;99.90;;;;;;5036705;28;20052;-73
2021/01/07 11:47:05;;;;;;;15.25;11.88;;;4.00;99.90;;;;;;5035083;28;20404;-72
2021/01/07 11:49:46;;;;;;;16.40;11.50;;;3.60;99.90;;;;;;5035275;28;20076;-73
2021/01/07 11:52:14;;;;;;;18.38;11.00;;;3.50;99.90;;;;;;5043505;28;20247;-73
2021/01/07 11:54:46;;;;;;;17.08;11.48;;;3.40;99.90;;;;;;5024031;28;20095;-73
2021/01/07 11:57:18;;;;;;;18.40;12.25;;;3.40;99.90;;;;;;5033523;28;20137;-72
2021/01/07 11:59:52;;;;;;;18.38;12.50;;;3.40;99.90;;;;;;5015472;28;20493;-73
2021/01/07 12:02:22;;;;;;;19.83;14.20;;;3.30;99.90;;;;;;5039470;28;20045;-73
2021/01/07 12:04:53;;;;;;;19.30;13.32;;;3.20;99.90;;;;;;5022490;28;20098;-73
2021/01/07 12:07:43;;;;;;;15.48;11.43;;;3.20;99.90;;;;;;5023540;28;20118;-74
2021/01/07 12:10:10;;;;;;;20.75;13.02;;;3.10;99.90;;;;;;5040702;28;20072;-73
2021/01/07 12:13:07;;;;;;;16.10;11.30;;;2.80;99.90;;;;;;5028660;28;20057;-73
2021/01/07 12:15:36;;;;;;;19.05;12.77;;;2.80;99.90;;;;;;5023334;28;20133;-72
2021/01/07 12:18:03;;;;;;;17.25;11.93;;;2.90;99.90;;;;;;5012518;28;20057;-73
2021/01/07 12:20:35;;;;;;;20.60;12.60;;;2.90;99.90;;;;;;5043790;28;20045;-73
2021/01/07 12:23:03;;;;;;;18.02;12.25;;;2.60;99.90;;;;;;5038187;28;20057;-72
2021/01/07 12:25:31;;;;;;;21.02;13.50;;;2.60;99.90;;;;;;5035844;28;20076;-74
2021/01/07 12:27:58;;;;;;;19.17;12.75;;;2.70;99.90;;;;;;5037403;28;20566;-72
2021/01/07 12:30:26;;;;;;;17.88;12.57;;;2.70;99.90;;;;;;5042210;28;20504;-73
2021/01/07 12:33:25;;;;;;;16.20;11.38;;;2.70;99.90;;;;;;5014564;28;20104;-74
2021/01/07 12:36:16;;;;;;;16.45;11.50;;;2.60;99.90;;;;;;5044693;28;20053;-74
2021/01/07 12:39:04;;;;;;;16.67;12.25;;;2.60;99.90;;;;;;5034126;28;20061;-74
2021/01/07 12:41:46;;;;;;;17.33;12.18;;;2.50;99.90;;;;;;5043175;28;20045;-70
2021/01/07 12:44:16;;;;;;;17.55;12.32;;;2.50;99.90;;;;;;5031759;28;20052;-74